• Join FlightAware (Why Join?)
  • Login
  • US Flag 
03:04AM EDT


 

Airport Tracker/Info


-or-


 

Live Flight TrackerFlight Track Log ✈ UAL910 ✈ 14-Jul-2013 ✈ KDEN - KORD

Flight Track Log - Related Links

Times and Time Zones

All times are in EDT time to prevent confusion due to time zone crossing. See the UAL910 flight status page for this flight to view local times or setup timezone preferences in your user account.

Time Position Orientation Groundspeed Altitude Reporting Facility
EDT Latitude Longitude Course Direction KTS MPH feet Rate Location/Type
10:25AM 39.8833 -104.6000 82° East 198 228 6,400  Level Denver TRACON
10:26AM 39.9000 -104.5167 75° East 246 283 8,300 1,860 Climbing Denver TRACON
10:27AM 39.9167 -104.4333 75° East 285 328 10,000 1,680 Climbing Denver TRACON
10:28AM 39.9260 -104.2561 79° East  Level FlightAware Approximate
10:28AM 39.9333 -104.3333 78° East 326 375 11,500  Level Denver TRACON
10:29AM 39.9474 -104.1171 79° East  Level FlightAware Approximate
10:29AM 39.9497 -104.2575 74° East 339 390 12,800  Level Denver Center
10:30AM 39.9795 -103.9818 72° East  Level FlightAware Approximate
10:30AM 39.9725 -104.1528 74° East 354 407 15,000  Level Denver Center
10:31AM 39.9972 -103.8421 82° East  Level FlightAware Approximate
10:31AM 39.9903 -103.9875 82° East 375 432 17,100  Level Denver Center
10:32AM 40.0097 -103.8397 80° East 415 478 18,500 1,380 Climbing Denver Center
10:33AM 40.0311 -103.7036 78° East 414 476 20,000 1,740 Climbing Denver Center
10:34AM 40.0633 -103.5192 77° East 437 503 22,100 1,680 Climbing Denver Center
10:35AM 40.0886 -103.3606 78° East 446 513 23,500 1,320 Climbing Denver Center
10:36AM 40.1142 -103.1961 78° East 460 529 24,900 1,320 Climbing Denver Center
10:37AM 40.1411 -103.0306 78° East 467 537 26,300 1,260 Climbing Denver Center
10:38AM 40.1667 -102.8625 79° East 472 543 27,600 1,200 Climbing Denver Center
10:39AM 40.1931 -102.6919 78° East 479 551 28,800 1,500 Climbing Denver Center
10:40AM 40.2222 -102.5011 79° East 474 545 30,700 1,440 Climbing Denver Center
10:41AM 40.2467 -102.3414 79° East 469 540 31,800 1,260 Climbing Denver Center
10:42AM 40.2756 -102.1553 78° East 467 537 33,400 1,260 Climbing Denver Center
10:43AM 40.2992 -101.9975 79° East 463 533 34,500 720 Climbing Denver Center
10:44AM 40.3267 -101.8131 79° East 463 533 35,000 240 Climbing Denver Center
10:45AM 40.3497 -101.6547 79° East 464 534 35,000  Level Denver Center
10:46AM 40.3775 -101.4686 79° East 467 537 35,100 720 Climbing Denver Center
10:47AM 40.4000 -101.3081 80° East 468 539 36,500 900 Climbing Denver Center
10:48AM 40.4261 -101.1256 79° East 461 531 37,000 240 Climbing Denver Center
10:49AM 40.4481 -100.9686 80° East 460 529 37,000  Level Denver Center
10:50AM 40.5000 -100.7989 68° East 454 522 37,000  Level Denver Center
10:51AM 40.5533 -100.6569 64° Northeast 457 526 37,000  Level Denver Center
10:53AM 40.6128 -100.4931 64° Northeast 450 518 37,000  Level Denver Center
10:54AM 40.6639 -100.3550 64° Northeast 443 510 37,000  Level Denver Center
10:55AM 40.7217 -100.1967 64° Northeast 435 501 37,000  Level Denver Center
10:56AM 40.7711 -100.0603 64° Northeast 433 498 37,000  Level Denver Center
10:57AM 40.8292 -99.9022 64° Northeast 430 495 37,000  Level Denver Center
10:58AM 40.8864 -99.7500 64° Northeast 434 499 37,000  Level Denver Center
10:59AM 40.9392 -99.6047 64° Northeast 437 503 37,000  Level Denver Center
11:00AM 40.9922 -99.4569 65° Northeast 442 509 37,000  Level Denver Center
11:01AM 41.0444 -99.3094 65° Northeast 442 509 37,000  Level Denver Center
11:02AM 41.0969 -99.1606 65° Northeast 444 511 37,000  Level Denver Center
11:03AM 41.1564 -98.9906 65° Northeast 445 512 37,000  Level Denver Center
11:04AM 41.2061 -98.8458 65° Northeast 449 517 37,000  Level Denver Center
11:05AM 41.2328 -98.7725 64° Northeast 447 514 37,000  Level Minneapolis Center
11:06AM 41.2972 -98.5903 65° Northeast 450 518 37,000  Level Minneapolis Center
11:07AM 41.3622 -98.3958 66° East 453 521 37,000  Level Minneapolis Center
11:08AM 41.4133 -98.2450 66° East 448 516 37,000  Level Minneapolis Center
11:09AM 41.4575 -98.1050 67° East 447 514 37,000  Level Minneapolis Center
11:10AM 41.5169 -97.9228 66° East 447 514 37,000 180 Level Minneapolis Center
11:11AM 41.5664 -97.7703 67° East 447 514 37,400 900 Climbing Minneapolis Center
11:12AM 41.6150 -97.6214 66° East 439 505 38,900 720 Climbing Minneapolis Center
11:13AM 41.6606 -97.4767 67° East 426 490 39,000  Climbing Minneapolis Center
11:14AM 41.7056 -97.3339 67° East 418 481 39,000  Level Minneapolis Center
11:15AM 41.7594 -97.1611 67° East 419 482 39,000  Level Minneapolis Center
11:16AM 41.8061 -97.0136 67° East 425 489 39,000  Level Minneapolis Center
11:17AM 41.8628 -96.8331 67° East 433 498 39,000  Level Minneapolis Center
11:18AM 41.9092 -96.6828 67° East 434 499 39,000  Level Minneapolis Center
11:19AM 41.9525 -96.5322 69° East 432 497 39,000  Level Minneapolis Center
11:20AM 41.9778 -96.3728 78° East 433 498 39,000  Level Minneapolis Center
11:21AM 42.0017 -96.2114 79° East 435 501 39,000  Level Minneapolis Center
11:23AM 42.0247 -96.0514 79° East 435 501 39,000  Level Minneapolis Center
11:24AM 42.0456 -95.8897 80° East 435 501 39,000  Level Minneapolis Center
11:25AM 42.0681 -95.7303 79° East 433 498 39,000  Level Minneapolis Center
11:26AM 42.0956 -95.5400 79° East 433 498 39,000  Level Minneapolis Center
11:27AM 42.1186 -95.3806 79° East 432 497 39,000 -60 Level Minneapolis Center
11:28AM 42.1408 -95.2233 79° East 429 494 38,900 -600 Descending Minneapolis Center
11:29AM 42.1614 -95.0664 80° East 426 490 37,800 -840 Descending Minneapolis Center
11:30AM 42.1817 -94.9072 80° East 428 493 37,000 -360 Descending Minneapolis Center
11:31AM 42.2067 -94.7189 80° East 425 489 37,000  Level Minneapolis Center
11:32AM 42.2314 -94.5289 80° East 428 493 37,000  Level Minneapolis Center
11:33AM 42.2506 -94.3678 81° East 432 497 37,000  Level Minneapolis Center
11:34AM 42.2714 -94.2053 80° East 432 497 37,000  Level Minneapolis Center
11:35AM 42.2917 -94.0467 80° East 433 498 37,000  Level Minneapolis Center
11:36AM 42.3125 -93.8883 80° East 433 498 37,000  Level Minneapolis Center
11:37AM 42.3319 -93.7303 80° East 433 498 37,000  Level Minneapolis Center
11:38AM 42.3542 -93.5408 81° East 430 495 37,000  Level Minneapolis Center
11:39AM 42.3719 -93.3825 81° East 431 496 37,000  Level Minneapolis Center
11:40AM 42.3928 -93.2253 80° East 430 495 37,000  Level Minneapolis Center
11:41AM 42.4108 -93.0667 81° East 430 495 37,000  Level Minneapolis Center
11:42AM 42.4217 -92.9700 81° East 433 498 37,000  Level Chicago Center
11:43AM 42.4394 -92.8103 81° East 433 498 37,000  Level Chicago Center
11:44AM 42.4569 -92.6528 81° East 430 495 37,000  Level Chicago Center
11:45AM 42.4756 -92.4942 81° East 431 496 37,000 -480 Level Chicago Center
11:46AM 42.4961 -92.3050 82° East 428 493 36,100 -1,860 Descending Chicago Center
11:47AM 42.5131 -92.1453 82° East 433 498 33,300 -1,680 Descending Chicago Center
11:48AM 42.5236 -91.9731 85° East 460 529 32,700 -840 Descending Chicago Center
11:49AM 42.5261 -91.8067 89° East 452 520 31,600 -840 Descending Chicago Center
11:50AM 42.5253 -91.6469 90° East 440 506 31,000 -300 Descending Chicago Center
11:51AM 42.5269 -91.4544 89° East 437 503 31,000  Level Chicago Center
11:52AM 42.5264 -91.2928 90° East 435 501 31,000  Level Chicago Center
11:53AM 42.5264 -91.1292 90° East 442 509 31,000  Level Chicago Center
11:54AM 42.5250 -90.9656 91° East 441 507 31,000  Level Chicago Center
11:55AM 42.5239 -90.7686 90° East 443 510 31,000  Level Chicago Center
11:56AM 42.5228 -90.6036 90° East 442 509 31,000  Level Chicago Center
11:57AM 42.5217 -90.4411 90° East 439 505 31,000  Level Chicago Center
11:58AM 42.5197 -90.2792 91° East 436 502 31,000 -540 Level Chicago Center
11:59AM 42.5097 -90.1208 95° East 428 493 30,000 -1,500 Descending Chicago Center
12:00PM 42.4939 -89.9339 96° East 420 483 27,900 -2,040 Descending Chicago Center
12:01PM 42.4822 -89.7697 95° East 407 468 25,800 -2,040 Descending Chicago Center
12:02PM 42.4700 -89.6222 96° East 395 455 23,800 -1,980 Descending Chicago Center
12:04PM 42.4594 -89.4778 96° East 388 447 21,800 -1,980 Descending Chicago Center
12:05PM 42.4469 -89.3358 97° East 381 438 19,800 -1,920 Descending Chicago Center
12:06PM 42.4350 -89.1975 97° East 371 427 17,900 -2,160 Descending Chicago Center
12:07PM 42.4219 -89.0347 96° East 373 429 15,300 -2,280 Descending Chicago Center
12:08PM 42.4097 -88.8978 97° East 367 422 13,200 -2,040 Descending Chicago Center
12:09PM 42.3986 -88.7633 96° East 360 414 11,200 -1,500 Descending Chicago Center
12:10PM 42.3872 -88.6367 97° East 343 395 10,100 -840 Descending Chicago Center
12:11PM 42.3778 -88.5253 97° East 309 356 9,500 -540 Descending Chicago Center
12:12PM 42.3481 -88.4144 110° East 274 315 9,000 -900 Descending Chicago Center
12:13PM 42.2994 -88.3400 131° Southeast 264 304 7,700 -1,260 Descending Chicago Center
12:14PM 42.2522 -88.2672 131° Southeast 260 299 6,400 -1,260 Descending Chicago Center
12:15PM 42.2047 -88.1956 132° Southeast 259 298 5,200 -720 Descending Chicago Center
12:16PM 42.1597 -88.1250 131° Southeast 252 290 5,000 -600 Descending Chicago Center
12:17PM 42.1167 -88.0833 144° Southeast 217 250 4,200 -1,260 Descending Chicago TRACON